sensor_id;sensor_type;location;lat;lon;timestamp;pressure;altitude;pressure_sealevel;temperature;humidity
59417;BME280;45222;52.458;20.914;2023-01-31T00:00:15;99392.07;;;1.62;90.88
59417;BME280;45222;52.458;20.914;2023-01-31T00:04:23;99392.64;;;1.66;90.62
59417;BME280;45222;52.458;20.914;2023-01-31T00:08:11;99396.20;;;1.64;90.41
59417;BME280;45222;52.458;20.914;2023-01-31T00:11:59;99402.73;;;1.69;90.33
59417;BME280;45222;52.458;20.914;2023-01-31T00:15:47;99404.75;;;1.72;90.32
59417;BME280;45222;52.458;20.914;2023-01-31T00:19:35;99408.62;;;1.71;90.38
59417;BME280;45222;52.458;20.914;2023-01-31T00:23:23;99416.16;;;1.71;90.46
59417;BME280;45222;52.458;20.914;2023-01-31T00:27:10;99415.96;;;1.72;90.17
59417;BME280;45222;52.458;20.914;2023-01-31T00:30:59;99418.23;;;1.72;89.99
59417;BME280;45222;52.458;20.914;2023-01-31T00:34:47;99427.15;;;1.74;89.92
59417;BME280;45222;52.458;20.914;2023-01-31T00:38:35;99431.87;;;1.74;90.11
59417;BME280;45222;52.458;20.914;2023-01-31T00:42:23;99436.13;;;1.79;90.02
59417;BME280;45222;52.458;20.914;2023-01-31T00:46:11;99435.88;;;1.82;89.67
59417;BME280;45222;52.458;20.914;2023-01-31T00:49:58;99444.42;;;1.83;89.45
59417;BME280;45222;52.458;20.914;2023-01-31T00:53:46;99451.59;;;1.84;89.69
59417;BME280;45222;52.458;20.914;2023-01-31T00:57:34;99453.20;;;1.89;89.76
59417;BME280;45222;52.458;20.914;2023-01-31T01:01:23;99462.92;;;1.93;89.74
59417;BME280;45222;52.458;20.914;2023-01-31T01:05:10;99470.64;;;1.92;89.48
59417;BME280;45222;52.458;20.914;2023-01-31T01:08:57;99476.54;;;1.88;89.43
59417;BME280;45222;52.458;20.914;2023-01-31T01:12:45;99473.73;;;1.89;89.24
59417;BME280;45222;52.458;20.914;2023-01-31T01:16:35;99478.41;;;1.91;89.35
59417;BME280;45222;52.458;20.914;2023-01-31T01:20:23;99478.39;;;1.91;89.49
59417;BME280;45222;52.458;20.914;2023-01-31T01:24:13;99479.66;;;1.97;89.45
59417;BME280;45222;52.458;20.914;2023-01-31T01:28:01;99482.32;;;1.95;89.46
59417;BME280;45222;52.458;20.914;2023-01-31T01:31:49;99484.08;;;1.95;89.33
59417;BME280;45222;52.458;20.914;2023-01-31T01:35:36;99495.61;;;1.96;89.07
59417;BME280;45222;52.458;20.914;2023-01-31T01:39:25;99501.84;;;1.99;89.14
59417;BME280;45222;52.458;20.914;2023-01-31T01:43:15;99503.93;;;2.00;89.14
59417;BME280;45222;52.458;20.914;2023-01-31T01:47:03;99509.39;;;1.99;88.99
59417;BME280;45222;52.458;20.914;2023-01-31T01:50:51;99512.79;;;1.97;88.81
59417;BME280;45222;52.458;20.914;2023-01-31T01:54:41;99517.09;;;1.93;88.87
59417;BME280;45222;52.458;20.914;2023-01-31T01:58:35;99523.02;;;1.95;89.01
59417;BME280;45222;52.458;20.914;2023-01-31T02:02:24;99528.02;;;1.97;88.85
59417;BME280;45222;52.458;20.914;2023-01-31T02:06:12;99531.02;;;1.96;88.65
59417;BME280;45222;52.458;20.914;2023-01-31T02:10:04;99538.98;;;1.94;88.34
59417;BME280;45222;52.458;20.914;2023-01-31T02:13:55;99544.77;;;1.94;88.29
59417;BME280;45222;52.458;20.914;2023-01-31T02:17:44;99552.65;;;1.95;88.40
59417;BME280;45222;52.458;20.914;2023-01-31T02:22:01;99554.77;;;1.93;88.32
59417;BME280;45222;52.458;20.914;2023-01-31T02:26:29;99563.50;;;1.95;88.10
59417;BME280;45222;52.458;20.914;2023-01-31T02:30:39;99574.39;;;1.95;87.99
59417;BME280;45222;52.458;20.914;2023-01-31T02:34:38;99574.20;;;1.95;87.86
59417;BME280;45222;52.458;20.914;2023-01-31T02:38:38;99574.20;;;2.01;88.02
59417;BME280;45222;52.458;20.914;2023-01-31T02:42:36;99584.23;;;2.00;87.78
59417;BME280;45222;52.458;20.914;2023-01-31T02:46:35;99587.15;;;2.03;87.53
59417;BME280;45222;52.458;20.914;2023-01-31T02:50:28;99598.30;;;2.06;87.46
59417;BME280;45222;52.458;20.914;2023-01-31T02:54:21;99608.76;;;2.09;87.29
59417;BME280;45222;52.458;20.914;2023-01-31T02:58:35;99613.39;;;2.12;87.26
59417;BME280;45222;52.458;20.914;2023-01-31T03:02:24;99617.25;;;2.12;87.04
59417;BME280;45222;52.458;20.914;2023-01-31T03:06:48;99623.51;;;2.08;86.90
59417;BME280;45222;52.458;20.914;2023-01-31T03:10:59;99628.40;;;2.09;86.89
59417;BME280;45222;52.458;20.914;2023-01-31T03:14:55;99634.84;;;2.10;86.81
59417;BME280;45222;52.458;20.914;2023-01-31T03:18:55;99644.70;;;2.09;86.78
59417;BME280;45222;52.458;20.914;2023-01-31T03:22:47;99649.86;;;2.06;86.67
59417;BME280;45222;52.458;20.914;2023-01-31T03:26:37;99656.65;;;2.08;86.56
59417;BME280;45222;52.458;20.914;2023-01-31T03:30:31;99667.84;;;2.09;86.47
59417;BME280;45222;52.458;20.914;2023-01-31T03:34:21;99670.61;;;2.11;86.32
59417;BME280;45222;52.458;20.914;2023-01-31T03:38:16;99669.59;;;2.10;86.28
59417;BME280;45222;52.458;20.914;2023-01-31T03:42:06;99679.65;;;2.07;86.10
59417;BME280;45222;52.458;20.914;2023-01-31T03:45:58;99681.34;;;2.02;85.79
59417;BME280;45222;52.458;20.914;2023-01-31T03:49:48;99685.45;;;1.99;85.87
59417;BME280;45222;52.458;20.914;2023-01-31T03:53:40;99688.74;;;1.94;86.09
59417;BME280;45222;52.458;20.914;2023-01-31T03:57:34;99696.98;;;1.94;86.19
59417;BME280;45222;52.458;20.914;2023-01-31T04:01:28;99699.32;;;1.91;85.91
59417;BME280;45222;52.458;20.914;2023-01-31T04:05:19;99704.92;;;1.84;85.73
59417;BME280;45222;52.458;20.914;2023-01-31T04:09:08;99710.23;;;1.74;85.61
59417;BME280;45222;52.458;20.914;2023-01-31T04:12:56;99712.72;;;1.66;85.74
59417;BME280;45222;52.458;20.914;2023-01-31T04:16:45;99715.41;;;1.62;86.00
59417;BME280;45222;52.458;20.914;2023-01-31T04:20:33;99721.70;;;1.54;86.12
59417;BME280;45222;52.458;20.914;2023-01-31T04:24:21;99730.28;;;1.47;85.94
59417;BME280;45222;52.458;20.914;2023-01-31T04:28:08;99735.27;;;1.43;85.76
59417;BME280;45222;52.458;20.914;2023-01-31T04:31:56;99743.64;;;1.36;85.50
59417;BME280;45222;52.458;20.914;2023-01-31T04:35:44;99748.62;;;1.33;85.65
59417;BME280;45222;52.458;20.914;2023-01-31T04:39:32;99754.13;;;1.29;85.80
59417;BME280;45222;52.458;20.914;2023-01-31T04:43:20;99761.91;;;1.26;86.04
59417;BME280;45222;52.458;20.914;2023-01-31T04:47:07;99762.30;;;1.23;86.11
59417;BME280;45222;52.458;20.914;2023-01-31T04:50:55;99766.34;;;1.23;85.84
59417;BME280;45222;52.458;20.914;2023-01-31T04:54:43;99774.79;;;1.21;85.68
59417;BME280;45222;52.458;20.914;2023-01-31T04:58:30;99779.33;;;1.22;85.68
59417;BME280;45222;52.458;20.914;2023-01-31T05:02:19;99781.70;;;1.25;85.83
59417;BME280;45222;52.458;20.914;2023-01-31T05:06:08;99784.82;;;1.28;85.96
59417;BME280;45222;52.458;20.914;2023-01-31T05:09:56;99791.39;;;1.32;85.99
59417;BME280;45222;52.458;20.914;2023-01-31T05:13:44;99796.56;;;1.37;85.62
59417;BME280;45222;52.458;20.914;2023-01-31T05:17:33;99803.14;;;1.40;85.43
59417;BME280;45222;52.458;20.914;2023-01-31T05:21:21;99805.73;;;1.42;85.27
59417;BME280;45222;52.458;20.914;2023-01-31T05:25:09;99816.84;;;1.48;85.19
59417;BME280;45222;52.458;20.914;2023-01-31T05:28:57;99816.70;;;1.54;85.14
59417;BME280;45222;52.458;20.914;2023-01-31T05:32:46;99821.77;;;1.54;84.75
59417;BME280;45222;52.458;20.914;2023-01-31T05:36:35;99831.71;;;1.58;84.64
59417;BME280;45222;52.458;20.914;2023-01-31T05:40:23;99846.88;;;1.62;84.34
59417;BME280;45222;52.458;20.914;2023-01-31T05:44:11;99846.80;;;1.65;84.10
59417;BME280;45222;52.458;20.914;2023-01-31T05:48:00;99852.73;;;1.67;83.81
59417;BME280;45222;52.458;20.914;2023-01-31T05:51:48;99859.91;;;1.67;83.51
59417;BME280;45222;52.458;20.914;2023-01-31T05:55:35;99871.89;;;1.64;83.68
59417;BME280;45222;52.458;20.914;2023-01-31T05:59:23;99873.95;;;1.67;83.69
59417;BME280;45222;52.458;20.914;2023-01-31T06:03:11;99880.39;;;1.68;83.72
59417;BME280;45222;52.458;20.914;2023-01-31T06:06:59;99886.19;;;1.69;83.32
59417;BME280;45222;52.458;20.914;2023-01-31T06:10:47;99891.46;;;1.67;83.12
59417;BME280;45222;52.458;20.914;2023-01-31T06:14:34;99899.77;;;1.64;83.37
59417;BME280;45222;52.458;20.914;2023-01-31T06:18:22;99902.01;;;1.65;83.35
59417;BME280;45222;52.458;20.914;2023-01-31T06:22:11;99906.55;;;1.66;83.35
59417;BME280;45222;52.458;20.914;2023-01-31T06:25:59;99915.64;;;1.68;83.18
59417;BME280;45222;52.458;20.914;2023-01-31T06:29:47;99924.45;;;1.65;82.96
59417;BME280;45222;52.458;20.914;2023-01-31T06:33:35;99925.65;;;1.67;82.73
59417;BME280;45222;52.458;20.914;2023-01-31T06:37:22;99930.69;;;1.69;82.76
59417;BME280;45222;52.458;20.914;2023-01-31T06:41:10;99934.90;;;1.69;82.54
59417;BME280;45222;52.458;20.914;2023-01-31T06:44:58;99943.16;;;1.68;82.50
59417;BME280;45222;52.458;20.914;2023-01-31T06:48:46;99950.00;;;1.67;82.37
59417;BME280;45222;52.458;20.914;2023-01-31T06:52:34;99960.70;;;1.67;82.47
59417;BME280;45222;52.458;20.914;2023-01-31T06:56:22;99961.86;;;1.71;82.35
59417;BME280;45222;52.458;20.914;2023-01-31T07:04:00;99976.34;;;1.74;82.25
59417;BME280;45222;52.458;20.914;2023-01-31T07:07:48;99977.36;;;1.76;81.83
59417;BME280;45222;52.458;20.914;2023-01-31T07:11:37;99974.89;;;1.77;81.76
59417;BME280;45222;52.458;20.914;2023-01-31T07:15:25;99983.09;;;1.79;81.72
59417;BME280;45222;52.458;20.914;2023-01-31T07:19:13;99979.70;;;1.82;81.59
59417;BME280;45222;52.458;20.914;2023-01-31T07:23:00;99985.10;;;1.84;81.38
59417;BME280;45222;52.458;20.914;2023-01-31T07:26:50;99989.13;;;1.85;80.86
59417;BME280;45222;52.458;20.914;2023-01-31T07:30:36;99989.14;;;1.84;81.03
59417;BME280;45222;52.458;20.914;2023-01-31T07:34:25;99992.44;;;1.86;81.03
59417;BME280;45222;52.458;20.914;2023-01-31T07:38:13;99994.46;;;1.89;81.03
59417;BME280;45222;52.458;20.914;2023-01-31T07:42:00;100001.74;;;1.94;80.37
59417;BME280;45222;52.458;20.914;2023-01-31T07:45:48;100006.61;;;1.97;79.97
59417;BME280;45222;52.458;20.914;2023-01-31T07:49:36;100014.83;;;1.98;80.03
59417;BME280;45222;52.458;20.914;2023-01-31T07:53:23;100024.89;;;2.04;80.18
59417;BME280;45222;52.458;20.914;2023-01-31T07:57:11;100029.55;;;2.08;79.75
59417;BME280;45222;52.458;20.914;2023-01-31T08:00:59;100036.74;;;2.08;79.40
59417;BME280;45222;52.458;20.914;2023-01-31T08:05:07;100045.10;;;2.10;79.02
59417;BME280;45222;52.458;20.914;2023-01-31T08:08:55;100047.83;;;2.15;79.27
59417;BME280;45222;52.458;20.914;2023-01-31T08:12:43;100056.71;;;2.19;78.84
59417;BME280;45222;52.458;20.914;2023-01-31T08:16:31;100067.22;;;2.20;78.75
59417;BME280;45222;52.458;20.914;2023-01-31T08:20:19;100070.52;;;2.22;78.73
59417;BME280;45222;52.458;20.914;2023-01-31T08:24:08;100073.58;;;2.27;78.43
59417;BME280;45222;52.458;20.914;2023-01-31T08:27:57;100084.06;;;2.29;78.12
59417;BME280;45222;52.458;20.914;2023-01-31T08:31:44;100091.77;;;2.30;78.48
59417;BME280;45222;52.458;20.914;2023-01-31T08:35:32;100092.08;;;2.33;77.79
59417;BME280;45222;52.458;20.914;2023-01-31T08:39:20;100102.91;;;2.35;77.66
59417;BME280;45222;52.458;20.914;2023-01-31T08:43:09;100109.29;;;2.41;77.42
59417;BME280;45222;52.458;20.914;2023-01-31T08:46:56;100111.53;;;2.43;76.79
59417;BME280;45222;52.458;20.914;2023-01-31T08:50:47;100115.41;;;2.42;76.87
59417;BME280;45222;52.458;20.914;2023-01-31T08:54:35;100118.15;;;2.46;76.81
59417;BME280;45222;52.458;20.914;2023-01-31T08:58:22;100120.94;;;2.46;77.06
59417;BME280;45222;52.458;20.914;2023-01-31T09:02:11;100117.55;;;2.49;76.59
59417;BME280;45222;52.458;20.914;2023-01-31T09:06:00;100122.25;;;2.51;76.33
59417;BME280;45222;52.458;20.914;2023-01-31T09:09:47;100129.80;;;2.51;76.27
59417;BME280;45222;52.458;20.914;2023-01-31T09:13:35;100129.68;;;2.48;75.98
59417;BME280;45222;52.458;20.914;2023-01-31T09:17:23;100130.52;;;2.50;76.11
59417;BME280;45222;52.458;20.914;2023-01-31T09:21:13;100138.59;;;2.51;76.16
59417;BME280;45222;52.458;20.914;2023-01-31T09:25:02;100140.33;;;2.52;76.26
59417;BME280;45222;52.458;20.914;2023-01-31T09:28:50;100139.52;;;2.57;75.80
59417;BME280;45222;52.458;20.914;2023-01-31T09:32:38;100144.52;;;2.61;76.10
59417;BME280;45222;52.458;20.914;2023-01-31T09:36:27;100140.79;;;2.64;76.15
59417;BME280;45222;52.458;20.914;2023-01-31T09:40:20;100144.22;;;2.68;75.85
59417;BME280;45222;52.458;20.914;2023-01-31T09:44:13;100138.41;;;2.69;75.64
59417;BME280;45222;52.458;20.914;2023-01-31T09:48:03;100141.27;;;2.66;75.05
59417;BME280;45222;52.458;20.914;2023-01-31T09:51:56;100155.90;;;2.64;74.47
59417;BME280;45222;52.458;20.914;2023-01-31T09:55:47;100152.98;;;2.60;75.00
59417;BME280;45222;52.458;20.914;2023-01-31T09:59:44;100156.64;;;2.62;75.09
59417;BME280;45222;52.458;20.914;2023-01-31T10:03:52;100163.31;;;2.61;74.77
59417;BME280;45222;52.458;20.914;2023-01-31T10:07:47;100168.94;;;2.61;74.71
59417;BME280;45222;52.458;20.914;2023-01-31T10:11:40;100164.89;;;2.61;75.02
59417;BME280;45222;52.458;20.914;2023-01-31T10:15:33;100164.29;;;2.65;74.72
59417;BME280;45222;52.458;20.914;2023-01-31T10:19:26;100167.29;;;2.64;74.36
59417;BME280;45222;52.458;20.914;2023-01-31T10:23:20;100164.50;;;2.63;74.38
59417;BME280;45222;52.458;20.914;2023-01-31T10:27:13;100162.00;;;2.65;74.84
59417;BME280;45222;52.458;20.914;2023-01-31T10:31:06;100159.36;;;2.66;74.94
59417;BME280;45222;52.458;20.914;2023-01-31T10:34:59;100154.34;;;2.71;74.44
59417;BME280;45222;52.458;20.914;2023-01-31T10:38:56;100158.69;;;2.74;74.31
59417;BME280;45222;52.458;20.914;2023-01-31T10:42:50;100150.88;;;2.78;74.00
59417;BME280;45222;52.458;20.914;2023-01-31T10:46:39;100149.48;;;2.86;73.88
59417;BME280;45222;52.458;20.914;2023-01-31T10:50:30;100146.31;;;2.96;73.60
59417;BME280;45222;52.458;20.914;2023-01-31T10:54:30;100139.77;;;2.98;73.80
59417;BME280;45222;52.458;20.914;2023-01-31T10:58:22;100140.88;;;3.03;73.63
59417;BME280;45222;52.458;20.914;2023-01-31T11:02:19;100141.80;;;3.09;73.02
59417;BME280;45222;52.458;20.914;2023-01-31T11:06:12;100141.11;;;3.09;72.62
59417;BME280;45222;52.458;20.914;2023-01-31T11:10:00;100140.78;;;3.08;72.21
59417;BME280;45222;52.458;20.914;2023-01-31T11:14:15;100142.72;;;3.08;72.42
59417;BME280;45222;52.458;20.914;2023-01-31T11:18:04;100144.56;;;3.12;72.50
59417;BME280;45222;52.458;20.914;2023-01-31T11:21:54;100146.06;;;3.15;72.69
59417;BME280;45222;52.458;20.914;2023-01-31T11:25:44;100147.29;;;3.16;72.21
59417;BME280;45222;52.458;20.914;2023-01-31T11:29:32;100146.48;;;3.12;71.78
59417;BME280;45222;52.458;20.914;2023-01-31T11:33:40;100149.59;;;3.06;71.29
59417;BME280;45222;52.458;20.914;2023-01-31T11:37:27;100154.80;;;3.01;71.14
59417;BME280;45222;52.458;20.914;2023-01-31T11:41:27;100157.79;;;3.00;71.17
59417;BME280;45222;52.458;20.914;2023-01-31T11:45:16;100156.70;;;3.02;71.13
59417;BME280;45222;52.458;20.914;2023-01-31T11:49:03;100156.73;;;3.09;71.37
59417;BME280;45222;52.458;20.914;2023-01-31T11:52:55;100153.51;;;3.12;70.28
59417;BME280;45222;52.458;20.914;2023-01-31T11:56:42;100150.13;;;3.14;70.86
59417;BME280;45222;52.458;20.914;2023-01-31T12:00:31;100147.32;;;3.15;70.33
59417;BME280;45222;52.458;20.914;2023-01-31T12:04:19;100143.30;;;3.13;70.49
59417;BME280;45222;52.458;20.914;2023-01-31T12:08:09;100139.60;;;3.14;70.34
59417;BME280;45222;52.458;20.914;2023-01-31T12:12:25;100138.33;;;3.15;70.22
59417;BME280;45222;52.458;20.914;2023-01-31T12:16:13;100142.51;;;3.17;70.65
59417;BME280;45222;52.458;20.914;2023-01-31T12:20:08;100140.73;;;3.18;70.61
59417;BME280;45222;52.458;20.914;2023-01-31T12:23:59;100137.24;;;3.17;70.21
59417;BME280;45222;52.458;20.914;2023-01-31T12:27:51;100134.25;;;3.17;70.24
59417;BME280;45222;52.458;20.914;2023-01-31T12:31:57;100133.23;;;3.16;70.14
59417;BME280;45222;52.458;20.914;2023-01-31T12:35:49;100130.39;;;3.17;70.47
59417;BME280;45222;52.458;20.914;2023-01-31T12:39:46;100128.19;;;3.21;70.22
59417;BME280;45222;52.458;20.914;2023-01-31T12:43:42;100124.60;;;3.24;69.61
59417;BME280;45222;52.458;20.914;2023-01-31T12:47:37;100124.12;;;3.22;68.85
59417;BME280;45222;52.458;20.914;2023-01-31T12:51:35;100129.00;;;3.24;69.39
59417;BME280;45222;52.458;20.914;2023-01-31T12:55:27;100124.71;;;3.20;69.08
59417;BME280;45222;52.458;20.914;2023-01-31T12:59:21;100122.89;;;3.23;68.73
59417;BME280;45222;52.458;20.914;2023-01-31T13:03:20;100116.73;;;3.22;68.54
59417;BME280;45222;52.458;20.914;2023-01-31T13:07:10;100112.25;;;3.19;68.23
59417;BME280;45222;52.458;20.914;2023-01-31T13:11:00;100111.22;;;3.10;67.89
59417;BME280;45222;52.458;20.914;2023-01-31T13:14:49;100108.27;;;3.00;67.68
59417;BME280;45222;52.458;20.914;2023-01-31T13:18:36;100111.40;;;2.93;67.90
59417;BME280;45222;52.458;20.914;2023-01-31T13:22:24;100108.89;;;2.87;67.82
59417;BME280;45222;52.458;20.914;2023-01-31T13:26:13;100100.81;;;2.87;67.66
59417;BME280;45222;52.458;20.914;2023-01-31T13:30:05;100103.45;;;2.87;67.15
59417;BME280;45222;52.458;20.914;2023-01-31T13:33:57;100103.04;;;2.90;67.45
59417;BME280;45222;52.458;20.914;2023-01-31T13:37:46;100104.52;;;3.02;66.78
59417;BME280;45222;52.458;20.914;2023-01-31T13:41:33;100106.02;;;3.07;66.55
59417;BME280;45222;52.458;20.914;2023-01-31T13:45:21;100107.96;;;3.06;66.19
59417;BME280;45222;52.458;20.914;2023-01-31T13:49:09;100105.39;;;3.03;65.79
59417;BME280;45222;52.458;20.914;2023-01-31T13:53:01;100102.73;;;2.96;65.70
59417;BME280;45222;52.458;20.914;2023-01-31T13:56:51;100098.17;;;2.87;66.04
59417;BME280;45222;52.458;20.914;2023-01-31T14:00:38;100100.33;;;2.77;65.87
59417;BME280;45222;52.458;20.914;2023-01-31T14:04:29;100109.69;;;2.66;65.75
59417;BME280;45222;52.458;20.914;2023-01-31T14:12:32;100098.90;;;2.51;65.97
59417;BME280;45222;52.458;20.914;2023-01-31T14:16:35;100101.48;;;2.45;65.98
59417;BME280;45222;52.458;20.914;2023-01-31T14:20:26;100099.17;;;2.37;65.50
59417;BME280;45222;52.458;20.914;2023-01-31T14:24:19;100102.38;;;2.35;65.82
59417;BME280;45222;52.458;20.914;2023-01-31T14:28:08;100103.48;;;2.32;66.09
59417;BME280;45222;52.458;20.914;2023-01-31T14:31:55;100105.83;;;2.29;66.40
59417;BME280;45222;52.458;20.914;2023-01-31T14:35:48;100104.70;;;2.23;66.51
59417;BME280;45222;52.458;20.914;2023-01-31T14:43:44;100093.85;;;2.12;67.31
59417;BME280;45222;52.458;20.914;2023-01-31T14:47:38;100090.06;;;2.08;67.90
59417;BME280;45222;52.458;20.914;2023-01-31T14:51:32;100091.92;;;2.02;68.13
59417;BME280;45222;52.458;20.914;2023-01-31T14:55:27;100089.58;;;1.97;68.66
59417;BME280;45222;52.458;20.914;2023-01-31T14:59:26;100085.21;;;1.94;68.89
59417;BME280;45222;52.458;20.914;2023-01-31T15:03:15;100076.28;;;1.94;69.07
59417;BME280;45222;52.458;20.914;2023-01-31T15:07:02;100085.23;;;1.94;69.05
59417;BME280;45222;52.458;20.914;2023-01-31T15:10:54;100079.48;;;1.91;68.96
59417;BME280;45222;52.458;20.914;2023-01-31T15:14:41;100076.21;;;1.88;68.90
59417;BME280;45222;52.458;20.914;2023-01-31T15:18:30;100075.90;;;1.85;69.06
59417;BME280;45222;52.458;20.914;2023-01-31T15:22:17;100083.36;;;1.81;69.29
59417;BME280;45222;52.458;20.914;2023-01-31T15:26:05;100078.36;;;1.75;69.34
59417;BME280;45222;52.458;20.914;2023-01-31T15:29:54;100075.29;;;1.70;69.51
59417;BME280;45222;52.458;20.914;2023-01-31T15:33:41;100079.95;;;1.64;69.56
59417;BME280;45222;52.458;20.914;2023-01-31T15:37:30;100075.27;;;1.62;69.82
59417;BME280;45222;52.458;20.914;2023-01-31T15:41:18;100066.16;;;1.60;69.97
59417;BME280;45222;52.458;20.914;2023-01-31T15:45:12;100064.23;;;1.60;70.19
59417;BME280;45222;52.458;20.914;2023-01-31T15:48:59;100062.69;;;1.58;70.13
59417;BME280;45222;52.458;20.914;2023-01-31T15:52:45;100061.70;;;1.54;70.25
59417;BME280;45222;52.458;20.914;2023-01-31T15:56:31;100063.89;;;1.49;70.55
59417;BME280;45222;52.458;20.914;2023-01-31T16:00:20;100068.92;;;1.42;70.59
59417;BME280;45222;52.458;20.914;2023-01-31T16:04:08;100072.70;;;1.35;70.83
59417;BME280;45222;52.458;20.914;2023-01-31T16:07:57;100073.11;;;1.30;71.08
59417;BME280;45222;52.458;20.914;2023-01-31T16:11:43;100076.30;;;1.28;71.25
59417;BME280;45222;52.458;20.914;2023-01-31T16:15:30;100074.19;;;1.29;71.51
59417;BME280;45222;52.458;20.914;2023-01-31T16:19:18;100063.62;;;1.32;71.80
59417;BME280;45222;52.458;20.914;2023-01-31T16:23:21;100058.83;;;1.37;72.11
59417;BME280;45222;52.458;20.914;2023-01-31T16:27:08;100054.55;;;1.42;72.07
59417;BME280;45222;52.458;20.914;2023-01-31T16:31:05;100054.14;;;1.44;72.06
59417;BME280;45222;52.458;20.914;2023-01-31T16:34:53;100059.23;;;1.45;71.92
59417;BME280;45222;52.458;20.914;2023-01-31T16:38:40;100053.66;;;1.42;71.95
59417;BME280;45222;52.458;20.914;2023-01-31T16:42:26;100051.27;;;1.38;72.11
59417;BME280;45222;52.458;20.914;2023-01-31T16:46:19;100045.06;;;1.32;72.07
59417;BME280;45222;52.458;20.914;2023-01-31T16:54:19;100042.80;;;1.19;72.57
59417;BME280;45222;52.458;20.914;2023-01-31T16:58:07;100039.34;;;1.17;72.90
59417;BME280;45222;52.458;20.914;2023-01-31T17:01:56;100038.69;;;1.14;73.20
59417;BME280;45222;52.458;20.914;2023-01-31T17:05:46;100034.38;;;1.10;73.33
59417;BME280;45222;52.458;20.914;2023-01-31T17:09:32;100034.61;;;1.05;73.54
59417;BME280;45222;52.458;20.914;2023-01-31T17:13:19;100033.23;;;1.03;73.74
59417;BME280;45222;52.458;20.914;2023-01-31T17:17:08;100031.09;;;1.05;74.14
59417;BME280;45222;52.458;20.914;2023-01-31T17:20:55;100024.56;;;1.10;74.19
59417;BME280;45222;52.458;20.914;2023-01-31T17:24:41;100021.20;;;1.12;74.29
59417;BME280;45222;52.458;20.914;2023-01-31T17:28:28;100016.10;;;1.13;74.41
59417;BME280;45222;52.458;20.914;2023-01-31T17:32:15;100009.09;;;1.14;74.71
59417;BME280;45222;52.458;20.914;2023-01-31T17:36:01;100003.88;;;1.11;74.78
59417;BME280;45222;52.458;20.914;2023-01-31T17:39:47;99996.95;;;1.05;75.00
59417;BME280;45222;52.458;20.914;2023-01-31T17:43:34;99994.95;;;1.00;75.02
59417;BME280;45222;52.458;20.914;2023-01-31T17:47:20;99981.37;;;0.93;75.47
59417;BME280;45222;52.458;20.914;2023-01-31T17:51:09;99972.48;;;0.91;75.82
59417;BME280;45222;52.458;20.914;2023-01-31T17:54:55;99962.70;;;0.90;75.87
59417;BME280;45222;52.458;20.914;2023-01-31T17:58:41;99957.63;;;0.90;76.06
59417;BME280;45222;52.458;20.914;2023-01-31T18:02:27;99951.38;;;0.87;76.06
59417;BME280;45222;52.458;20.914;2023-01-31T18:06:13;99946.18;;;0.83;76.31
59417;BME280;45222;52.458;20.914;2023-01-31T18:10:00;99941.14;;;0.80;76.67
59417;BME280;45222;52.458;20.914;2023-01-31T18:13:46;99933.75;;;0.83;77.17
59417;BME280;45222;52.458;20.914;2023-01-31T18:17:32;99930.34;;;0.88;77.34
59417;BME280;45222;52.458;20.914;2023-01-31T18:21:19;99922.74;;;0.92;77.74
59417;BME280;45222;52.458;20.914;2023-01-31T18:25:06;99921.48;;;0.94;78.08
59417;BME280;45222;52.458;20.914;2023-01-31T18:28:57;99909.92;;;0.95;78.61
59417;BME280;45222;52.458;20.914;2023-01-31T18:32:43;99897.32;;;0.94;78.54
59417;BME280;45222;52.458;20.914;2023-01-31T18:36:29;99893.27;;;0.96;78.87
59417;BME280;45222;52.458;20.914;2023-01-31T18:40:16;99885.91;;;0.97;78.95
59417;BME280;45222;52.458;20.914;2023-01-31T18:44:03;99881.30;;;1.00;79.01
59417;BME280;45222;52.458;20.914;2023-01-31T18:47:49;99869.70;;;1.03;79.25
59417;BME280;45222;52.458;20.914;2023-01-31T18:51:36;99865.30;;;1.04;79.73
59417;BME280;45222;52.458;20.914;2023-01-31T18:55:26;99861.65;;;1.02;80.20
59417;BME280;45222;52.458;20.914;2023-01-31T18:59:15;99858.23;;;0.98;80.71
59417;BME280;45222;52.458;20.914;2023-01-31T19:03:01;99852.33;;;0.94;81.38
59417;BME280;45222;52.458;20.914;2023-01-31T19:06:48;99845.87;;;0.93;81.58
59417;BME280;45222;52.458;20.914;2023-01-31T19:10:35;99840.81;;;0.92;81.89
59417;BME280;45222;52.458;20.914;2023-01-31T19:14:23;99829.80;;;0.92;82.37
59417;BME280;45222;52.458;20.914;2023-01-31T19:18:12;99826.50;;;0.89;82.73
59417;BME280;45222;52.458;20.914;2023-01-31T19:21:59;99824.46;;;0.86;83.06
59417;BME280;45222;52.458;20.914;2023-01-31T19:25:45;99815.38;;;0.85;83.47
59417;BME280;45222;52.458;20.914;2023-01-31T19:29:31;99803.64;;;0.86;83.95
59417;BME280;45222;52.458;20.914;2023-01-31T19:33:18;99793.61;;;0.88;84.04
59417;BME280;45222;52.458;20.914;2023-01-31T19:37:06;99786.74;;;0.91;84.74
59417;BME280;45222;52.458;20.914;2023-01-31T19:41:01;99778.67;;;0.92;85.09
59417;BME280;45222;52.458;20.914;2023-01-31T19:44:48;99770.45;;;0.92;85.05
59417;BME280;45222;52.458;20.914;2023-01-31T19:48:34;99759.27;;;0.90;85.51
59417;BME280;45222;52.458;20.914;2023-01-31T19:52:23;99749.61;;;0.92;85.24
59417;BME280;45222;52.458;20.914;2023-01-31T19:56:09;99737.13;;;0.94;85.55
59417;BME280;45222;52.458;20.914;2023-01-31T19:59:58;99726.38;;;0.99;85.66
59417;BME280;45222;52.458;20.914;2023-01-31T20:03:44;99718.23;;;1.02;85.85
59417;BME280;45222;52.458;20.914;2023-01-31T20:07:31;99707.47;;;1.06;86.05
59417;BME280;45222;52.458;20.914;2023-01-31T20:11:19;99698.83;;;1.10;86.20
59417;BME280;45222;52.458;20.914;2023-01-31T20:15:07;99694.63;;;1.10;86.40
59417;BME280;45222;52.458;20.914;2023-01-31T20:18:54;99687.48;;;1.08;86.80
59417;BME280;45222;52.458;20.914;2023-01-31T20:22:41;99685.36;;;1.09;86.86
59417;BME280;45222;52.458;20.914;2023-01-31T20:26:27;99682.30;;;1.13;87.11